Time;durP1;ratioP1;P1;durP2;ratioP2;P2;SDS_P1;SDS_P2;PMS_P1;PMS_P2;Temp;Humidity;BMP_temperature;BMP_pressure;BME280_temperature;BME280_humidity;BME280_pressure;Samples;Min_cycle;Max_cycle;Signal;HPM_P1;HPM_P2
2023/09/02 00:02:11;;;;;;;;;10.00;8.00;;;;;21.63;68.00;100849.06;6184278;23;45292;-87
2023/09/02 00:04:36;;;;;;;;;10.67;8.67;;;;;21.63;68.28;100840.94;6183736;23;45326;-88
2023/09/02 00:07:01;;;;;;;;;8.00;8.00;;;;;21.57;67.96;100825.28;6183112;23;50732;-80
2023/09/02 00:09:27;;;;;;;;;7.67;6.33;;;;;21.61;67.90;100834.78;6184267;23;45395;-86
2023/09/02 00:11:52;;;;;;;;;6.00;6.00;;;;;21.62;68.08;100838.38;6183666;23;45638;-84
2023/09/02 00:14:17;;;;;;;;;7.50;6.50;;;;;21.49;68.12;100830.63;6182657;22;45253;-83
2023/09/02 00:16:43;;;;;;;;;10.67;8.00;;;;;21.41;68.01;100814.28;6182866;22;45312;-82
2023/09/02 00:19:08;;;;;;;;;7.00;7.00;;;;;21.56;68.25;100847.94;6181383;23;45240;-81
2023/09/02 00:21:33;;;;;;;;;6.00;5.00;;;;;21.57;68.19;100841.53;6183384;22;45536;-82
2023/09/02 00:24:04;;;;;;;;;5.67;5.33;;;;;21.61;68.39;100847.47;6183870;22;45778;-86
2023/09/02 00:26:30;;;;;;;;;6.00;6.00;;;;;21.58;67.98;100847.78;6183849;22;45287;-82
2023/09/02 00:28:56;;;;;;;;;5.50;5.25;;;;;21.59;67.96;100842.22;6183556;23;45326;-82
2023/09/02 00:31:21;;;;;;;;;5.00;5.00;;;;;21.59;68.09;100850.34;6183334;23;45482;-80
2023/09/02 00:33:46;;;;;;;;;4.50;4.50;;;;;21.54;68.18;100835.56;6183460;23;46134;-81
2023/09/02 00:36:12;;;;;;;;;7.00;7.00;;;;;21.56;68.20;100850.66;6183546;22;45301;-85
2023/09/02 00:38:37;;;;;;;;;6.50;4.25;;;;;21.49;69.03;100850.41;6183763;23;45171;-85
2023/09/02 00:41:06;;;;;;;;;2.75;2.75;;;;;21.42;68.43;100849.28;6183184;22;45173;-82
2023/09/02 00:43:31;;;;;;;;;6.33;6.33;;;;;21.31;68.97;100845.94;6183346;22;45226;-80
2023/09/02 00:45:57;;;;;;;;;6.00;6.00;;;;;21.28;69.24;100851.66;6183974;22;45272;-83
2023/09/02 00:48:22;;;;;;;;;5.75;4.75;;;;;21.21;69.43;100852.19;6183586;23;45293;-85
2023/09/02 00:50:48;;;;;;;;;6.00;6.00;;;;;20.93;69.82;100807.19;6184214;22;45280;-85
2023/09/02 00:53:13;;;;;;;;;5.50;5.50;;;;;21.11;70.24;100856.81;6181924;23;58743;-83
2023/09/02 00:55:39;;;;;;;;;7.25;5.25;;;;;20.86;69.93;100825.00;6182976;23;45252;-83
2023/09/02 00:58:05;;;;;;;;;4.75;4.75;;;;;21.01;70.58;100855.13;6183641;22;45358;-85
2023/09/02 01:00:31;;;;;;;;;6.00;5.67;;;;;20.85;70.76;100834.13;6183730;23;45518;-83
2023/09/02 01:02:58;;;;;;;;;8.33;5.00;;;;;20.93;70.94;100858.53;6182774;22;45584;-82
2023/09/02 01:05:23;;;;;;;;;6.00;6.00;;;;;20.78;70.91;100838.38;6182607;22;45236;-83
2023/09/02 01:07:51;;;;;;;;;6.00;6.00;;;;;20.84;71.24;100851.34;6184553;22;45422;-82
2023/09/02 01:10:18;;;;;;;;;7.75;7.00;;;;;20.74;71.83;100842.38;6184079;22;45371;-81
2023/09/02 01:12:44;;;;;;;;;7.67;7.00;;;;;20.79;71.90;100845.50;6183160;22;45526;-81
2023/09/02 01:15:09;;;;;;;;;7.00;5.00;;;;;20.73;71.87;100830.72;6183272;22;45311;-81
2023/09/02 01:17:35;;;;;;;;;7.33;6.67;;;;;20.63;72.05;100816.38;6184865;23;45296;-80
2023/09/02 01:20:05;;;;;;;;;6.00;6.00;;;;;20.48;72.31;100815.97;6186930;23;45371;-83
2023/09/02 01:22:59;;;;;;;;;6.50;6.50;;;;;20.67;71.95;100850.22;6186299;23;45883;-79
2023/09/02 01:25:31;;;;;;;;;5.50;5.25;;;;;20.54;72.33;100826.19;6186538;23;45148;-86
2023/09/02 01:28:01;;;;;;;;;7.50;6.00;;;;;20.63;72.46;100848.81;6187624;22;45316;-82
2023/09/02 01:30:31;;;;;;;;;9.00;7.00;;;;;20.57;72.36;100830.44;6184466;22;45380;-82
2023/09/02 01:32:57;;;;;;;;;6.50;6.00;;;;;20.68;72.21;100851.91;6183827;22;45234;-82
2023/09/02 01:35:29;;;;;;;;;7.00;7.00;;;;;20.65;72.18;100854.06;6183722;22;45312;-86
2023/09/02 01:37:57;;;;;;;;;10.75;7.25;;;;;20.59;72.40;100855.50;6184764;23;45268;-82
2023/09/02 01:40:25;;;;;;;;;9.00;9.00;;;;;20.60;72.44;100860.75;6184211;22;45189;-84
2023/09/02 01:42:51;;;;;;;;;7.67;7.67;;;;;20.58;72.67;100857.34;6183720;22;45981;-86
2023/09/02 01:45:19;;;;;;;;;7.00;5.00;;;;;20.56;72.45;100850.34;6207592;22;45303;-84
2023/09/02 01:47:46;;;;;;;;;6.50;6.00;;;;;20.54;72.42;100842.41;6184658;22;45362;-84
2023/09/02 01:50:14;;;;;;;;;2.75;2.75;;;;;20.56;72.56;100840.41;6207791;22;45499;-86
2023/09/02 01:52:40;;;;;;;;;6.00;6.00;;;;;20.48;72.51;100826.78;6184000;22;46139;-86
2023/09/02 01:55:06;;;;;;;;;5.67;5.67;;;;;20.54;72.47;100847.81;6184012;22;45162;-84
2023/09/02 01:57:32;;;;;;;;;9.00;7.67;;;;;20.53;73.12;100846.09;6184527;23;45322;-85
2023/09/02 01:59:57;;;;;;;;;4.67;4.33;;;;;20.37;72.67;100821.50;6184771;22;45402;-84
2023/09/02 02:02:23;;;;;;;;;5.67;5.33;;;;;20.39;72.60;100827.59;6183803;23;59024;-82
2023/09/02 02:04:52;;;;;;;;;6.00;5.00;;;;;20.40;72.96;100834.72;6183894;22;45342;-85
2023/09/02 02:07:21;;;;;;;;;8.00;5.00;;;;;20.45;72.75;100837.88;6184124;22;45280;-83
2023/09/02 02:09:50;;;;;;;;;7.67;6.33;;;;;20.34;73.11;100821.78;6185062;22;45280;-84
2023/09/02 02:12:17;;;;;;;;;6.00;6.00;;;;;20.39;73.06;100834.84;6183893;23;45363;-82
2023/09/02 02:14:44;;;;;;;;;3.67;3.67;;;;;20.37;73.09;100832.31;6182598;23;45188;-85
2023/09/02 02:17:09;;;;;;;;;7.00;6.00;;;;;20.36;73.36;100822.50;6184793;22;45217;-85
2023/09/02 02:19:35;;;;;;;;;7.00;6.00;;;;;20.32;73.30;100818.38;6184524;23;55577;-84
2023/09/02 02:22:01;;;;;;;;;5.00;5.00;;;;;20.26;73.64;100811.69;6184301;22;45991;-82
2023/09/02 02:24:26;;;;;;;;;5.00;5.00;;;;;20.18;73.88;100808.88;6183628;22;45178;-81
2023/09/02 02:26:52;;;;;;;;;5.00;5.00;;;;;20.13;73.68;100794.06;6184288;22;45294;-83
2023/09/02 02:29:17;;;;;;;;;2.75;2.75;;;;;20.22;73.85;100817.53;6185239;23;45320;-81
2023/09/02 02:31:43;;;;;;;;;4.50;4.50;;;;;20.16;74.17;100807.28;6184937;23;45408;-85
2023/09/02 02:34:08;;;;;;;;;4.25;4.25;;;;;20.08;74.20;100801.75;6184786;22;45930;-80
2023/09/02 02:36:33;;;;;;;;;6.67;5.00;;;;;20.12;74.35;100822.06;6184234;22;45620;-83
2023/09/02 02:38:59;;;;;;;;;5.00;5.00;;;;;19.99;74.06;100807.00;6183756;22;45441;-81
2023/09/02 02:41:24;;;;;;;;;7.00;5.00;;;;;20.08;74.54;100817.97;6182995;22;45193;-88
2023/09/02 02:43:50;;;;;;;;;4.00;4.00;;;;;20.10;74.44;100821.38;6184124;23;45410;-83
2023/09/02 02:46:15;;;;;;;;;5.00;5.00;;;;;19.83;74.42;100784.28;6184226;22;45414;-86
2023/09/02 02:48:40;;;;;;;;;5.00;5.00;;;;;20.03;74.24;100813.81;6208192;22;45359;-86
2023/09/02 02:51:06;;;;;;;;;3.00;3.00;;;;;20.04;74.38;100820.06;6184839;23;67521;-84
2023/09/02 02:53:32;;;;;;;;;3.75;3.75;;;;;19.88;74.55;100801.72;6184352;23;45241;-81
2023/09/02 02:56:00;;;;;;;;;5.67;5.67;;;;;19.93;74.58;100823.78;6183170;23;45343;-82
2023/09/02 02:58:26;;;;;;;;;11.67;11.00;;;;;19.77;75.80;100809.94;6183403;23;45558;-86
2023/09/02 03:01:01;;;;;;;;;11.67;11.67;;;;;19.88;75.88;100839.53;6184518;23;46240;-85
2023/09/02 03:03:26;;;;;;;;;28.00;28.00;;;;;19.81;76.58;100835.69;6184092;22;45187;-83
2023/09/02 03:05:52;;;;;;;;;24.67;23.00;;;;;19.80;76.76;100836.69;6182801;23;61090;-79
2023/09/02 03:08:17;;;;;;;;;31.33;29.67;;;;;19.81;77.08;100843.78;6183138;23;45533;-81
2023/09/02 03:10:42;;;;;;;;;29.67;25.67;;;;;19.79;76.92;100840.34;6183433;23;45947;-80
2023/09/02 03:13:08;;;;;;;;;20.00;18.67;;;;;19.73;77.24;100840.91;6182783;23;56305;-85
2023/09/02 03:15:33;;;;;;;;;13.00;13.00;;;;;19.72;77.27;100844.59;6184132;22;45240;-85
2023/09/02 03:17:59;;;;;;;;;17.33;17.33;;;;;19.66;77.42;100847.84;6183528;22;45419;-84
2023/09/02 03:20:24;;;;;;;;;13.67;12.33;;;;;19.68;77.66;100851.28;6183426;23;45343;-85
2023/09/02 03:22:49;;;;;;;;;10.00;8.33;;;;;19.64;77.55;100848.00;6183035;23;45351;-81
2023/09/02 03:25:15;;;;;;;;;15.33;14.00;;;;;19.62;77.86;100860.78;6183446;22;45320;-81
2023/09/02 03:27:40;;;;;;;;;6.00;6.00;;;;;19.49;77.84;100849.34;6183284;23;45521;-82
2023/09/02 03:30:07;;;;;;;;;10.00;8.33;;;;;19.57;78.17;100856.78;6183045;23;45288;-79
2023/09/02 03:32:33;;;;;;;;;11.00;10.67;;;;;19.48;77.92;100836.84;6206425;22;45254;-79
2023/09/02 03:34:58;;;;;;;;;10.00;7.00;;;;;19.51;77.74;100862.69;6183015;22;45248;-80
2023/09/02 03:37:24;;;;;;;;;6.67;6.67;;;;;19.59;77.83;100871.00;6183584;22;45333;-80
2023/09/02 03:39:50;;;;;;;;;11.67;9.00;;;;;19.60;77.81;100878.09;6182991;22;45851;-82
2023/09/02 03:42:15;;;;;;;;;14.67;12.00;;;;;19.49;77.82;100859.28;6181020;23;45146;-82
2023/09/02 03:44:41;;;;;;;;;7.33;7.33;;;;;19.57;77.75;100876.53;6183372;23;45314;-81
2023/09/02 03:47:06;;;;;;;;;7.00;7.00;;;;;19.49;78.08;100868.22;6182512;23;51718;-81
2023/09/02 03:49:31;;;;;;;;;8.00;8.00;;;;;19.53;78.18;100882.28;6182206;23;45838;-81
2023/09/02 03:51:57;;;;;;;;;8.00;8.00;;;;;19.51;78.37;100879.72;6182682;22;47906;-80
2023/09/02 03:54:22;;;;;;;;;7.00;7.00;;;;;19.49;78.26;100878.16;6183618;23;45141;-83
2023/09/02 03:56:47;;;;;;;;;6.00;6.00;;;;;19.29;78.62;100853.81;6183805;23;45375;-81
2023/09/02 03:59:12;;;;;;;;;6.67;6.67;;;;;19.31;78.53;100851.84;6183896;23;45337;-80
2023/09/02 04:01:38;;;;;;;;;7.00;7.00;;;;;19.30;78.75;100860.06;6183023;23;55892;-81
2023/09/02 04:04:03;;;;;;;;;7.00;6.00;;;;;19.40;78.92;100866.31;6181213;23;45296;-80
2023/09/02 04:06:29;;;;;;;;;8.00;6.67;;;;;19.29;79.06;100850.28;6183406;22;45363;-81
2023/09/02 04:08:54;;;;;;;;;6.33;6.33;;;;;19.31;79.06;100857.22;6183300;23;46282;-83
2023/09/02 04:11:20;;;;;;;;;7.33;7.33;;;;;19.28;79.10;100852.13;6185038;23;45358;-79
2023/09/02 04:13:45;;;;;;;;;8.67;7.67;;;;;19.18;79.07;100839.56;6184626;22;45447;-79
2023/09/02 04:16:10;;;;;;;;;7.00;7.00;;;;;19.25;79.00;100851.50;6184504;23;55654;-82
2023/09/02 04:18:36;;;;;;;;;9.00;9.00;;;;;19.28;78.77;100857.50;6185207;22;45412;-80
2023/09/02 04:21:03;;;;;;;;;15.00;15.00;;;;;19.24;79.09;100855.19;6185170;22;45324;-80
2023/09/02 04:23:28;;;;;;;;;5.00;5.00;;;;;19.20;79.28;100849.22;6185950;22;45343;-80
2023/09/02 04:25:55;;;;;;;;;5.00;5.00;;;;;19.16;79.18;100845.09;6186560;22;45126;-81
2023/09/02 04:28:21;;;;;;;;;4.33;4.33;;;;;19.21;79.16;100856.34;6184626;22;46587;-82
2023/09/02 04:30:47;;;;;;;;;5.00;4.33;;;;;19.17;79.63;100860.28;6184550;23;48323;-80
2023/09/02 04:33:14;;;;;;;;;3.00;3.00;;;;;19.16;79.46;100863.97;6184021;22;45291;-85
2023/09/02 04:35:40;;;;;;;;;8.33;7.00;;;;;18.96;79.81;100840.59;6183751;22;45300;-84
2023/09/02 04:38:06;;;;;;;;;7.00;7.00;;;;;19.12;80.28;100870.59;6184067;22;46065;-84
2023/09/02 04:40:38;;;;;;;;;9.00;7.67;;;;;19.08;80.32;100866.47;6182784;22;45268;-84
2023/09/02 04:43:05;;;;;;;;;5.00;5.00;;;;;18.97;80.27;100862.03;6183297;22;45366;-88
2023/09/02 04:45:34;;;;;;;;;8.00;8.00;;;;;19.09;80.06;100878.97;6183307;22;45471;-86
2023/09/02 04:48:00;;;;;;;;;7.00;7.00;;;;;18.99;80.07;100862.75;6182780;22;45490;-84
2023/09/02 04:50:26;;;;;;;;;10.00;8.67;;;;;19.00;80.15;100869.84;6183454;22;45380;-84
2023/09/02 04:52:52;;;;;;;;;11.67;8.00;;;;;19.02;80.90;100875.97;6185520;22;45677;-86
2023/09/02 04:55:19;;;;;;;;;9.67;8.33;;;;;18.99;81.05;100878.91;6184177;22;60119;-80
2023/09/02 04:57:45;;;;;;;;;9.00;9.00;;;;;18.82;81.03;100852.56;6184919;23;45919;-87
2023/09/02 05:00:12;;;;;;;;;8.67;8.33;;;;;18.90;81.46;100879.72;6184609;23;45827;-84
2023/09/02 05:02:37;;;;;;;;;10.67;9.33;;;;;18.84;81.48;100864.91;6182565;22;45377;-81
2023/09/02 05:05:03;;;;;;;;;8.33;8.33;;;;;18.61;82.06;100839.06;6185058;22;45252;-84
2023/09/02 05:07:28;;;;;;;;;11.33;11.33;;;;;18.69;81.92;100860.84;6186670;23;45276;-81
2023/09/02 05:09:54;;;;;;;;;6.33;6.00;;;;;18.64;81.61;100851.47;6183456;22;45243;-83
2023/09/02 05:12:20;;;;;;;;;9.67;8.33;;;;;18.72;81.40;100865.97;6182857;22;45252;-83
2023/09/02 05:14:45;;;;;;;;;6.00;6.00;;;;;18.79;81.28;100877.94;6183080;22;45261;-82
2023/09/02 05:17:10;;;;;;;;;8.33;7.67;;;;;18.77;81.25;100893.41;6182318;22;45959;-81
2023/09/02 05:19:36;;;;;;;;;10.00;9.67;;;;;18.72;81.06;100884.84;6182241;22;45181;-83
2023/09/02 05:22:01;;;;;;;;;8.00;8.00;;;;;18.78;81.16;100889.72;6182477;23;50060;-83
2023/09/02 05:24:26;;;;;;;;;7.00;5.33;;;;;18.80;81.25;100893.13;6184640;23;45262;-85
2023/09/02 05:26:52;;;;;;;;;10.00;9.00;;;;;18.78;80.85;100895.09;6184468;23;45206;-85
2023/09/02 05:29:17;;;;;;;;;8.00;7.00;;;;;18.71;81.60;100885.81;6182343;23;66896;-81
2023/09/02 05:31:42;;;;;;;;;8.33;8.33;;;;;18.77;81.77;100904.19;6185918;23;46143;-80
2023/09/02 05:34:09;;;;;;;;;10.00;7.67;;;;;18.79;81.49;100912.97;6183560;23;45223;-81
2023/09/02 05:36:34;;;;;;;;;8.33;8.33;;;;;18.81;81.50;100913.69;6183953;22;46480;-84
2023/09/02 05:38:59;;;;;;;;;9.00;9.00;;;;;18.84;81.50;100915.28;6182449;23;45789;-80
2023/09/02 05:41:25;;;;;;;;;9.67;8.33;;;;;18.89;81.18;100915.75;6187013;23;50996;-81
2023/09/02 05:43:50;;;;;;;;;7.33;7.33;;;;;18.91;80.97;100915.63;6186407;23;56526;-80
2023/09/02 05:46:16;;;;;;;;;9.00;7.00;;;;;18.97;80.87;100925.84;6187332;23;62159;-82
2023/09/02 05:48:41;;;;;;;;;6.67;5.67;;;;;18.96;80.59;100916.06;6212410;22;45201;-83
2023/09/02 05:51:06;;;;;;;;;8.00;6.33;;;;;19.05;80.25;100926.91;6190788;22;45323;-85
2023/09/02 05:53:32;;;;;;;;;6.33;5.33;;;;;19.14;79.91;100925.25;6189837;23;45653;-82
2023/09/02 05:55:57;;;;;;;;;4.67;4.00;;;;;19.05;79.45;100915.28;6189886;23;45252;-83
2023/09/02 05:58:26;;;;;;;;;8.33;5.67;;;;;19.21;79.24;100937.22;6187812;23;51957;-84
2023/09/02 06:00:51;;;;;;;;;7.67;6.33;;;;;19.27;78.89;100936.69;6188610;22;45241;-83
2023/09/02 06:03:16;;;;;;;;;5.33;5.33;;;;;19.33;78.58;100941.53;6187638;23;45126;-87
2023/09/02 06:05:42;;;;;;;;;6.00;6.00;;;;;19.37;78.51;100940.28;6186219;23;45292;-85
2023/09/02 06:08:07;;;;;;;;;6.00;6.00;;;;;19.42;78.39;100932.66;6181624;22;72221;-80
2023/09/02 06:10:36;;;;;;;;;8.67;7.00;;;;;19.42;78.08;100929.09;6181159;23;45202;-83
2023/09/02 06:13:01;;;;;;;;;9.00;6.00;;;;;19.44;77.99;100932.53;6181649;23;45538;-87
2023/09/02 06:15:26;;;;;;;;;6.00;6.00;;;;;19.55;77.74;100920.81;6183796;22;45526;-83
2023/09/02 06:17:52;;;;;;;;;7.00;7.00;;;;;19.60;77.34;100926.66;6184374;22;45387;-81
2023/09/02 06:20:20;;;;;;;;;7.00;6.00;;;;;19.72;76.74;100925.56;6182817;23;45267;-82
2023/09/02 06:22:46;;;;;;;;;7.00;7.00;;;;;19.85;76.23;100930.72;6184355;23;45161;-79
2023/09/02 06:25:11;;;;;;;;;6.33;6.00;;;;;19.91;75.93;100931.00;6183814;22;46064;-85
2023/09/02 06:27:37;;;;;;;;;8.00;8.00;;;;;19.83;75.63;100916.50;6184687;22;45263;-82
2023/09/02 06:30:03;;;;;;;;;9.00;7.00;;;;;19.97;75.01;100941.28;6184326;23;45201;-84
2023/09/02 06:32:28;;;;;;;;;4.67;4.33;;;;;20.06;75.13;100960.34;6181257;23;45376;-82
2023/09/02 06:34:53;;;;;;;;;8.33;7.00;;;;;20.01;75.31;100948.09;6175733;23;70755;-80
2023/09/02 06:37:19;;;;;;;;;14.67;7.00;;;;;20.11;75.09;100958.06;6182864;23;45366;-82
2023/09/02 06:39:44;;;;;;;;;10.33;9.00;;;;;20.14;74.57;100964.03;6182345;22;45449;-81
2023/09/02 06:42:09;;;;;;;;;10.33;9.33;;;;;20.27;74.38;100958.38;6183371;23;45284;-81
2023/09/02 06:44:35;;;;;;;;;10.00;10.00;;;;;20.35;74.40;100955.84;6182775;23;46060;-83
2023/09/02 06:47:01;;;;;;;;;9.33;8.33;;;;;20.28;73.92;100944.75;6182830;23;45206;-84
2023/09/02 06:49:26;;;;;;;;;9.00;9.00;;;;;20.36;74.03;100972.91;6183362;23;45255;-86
2023/09/02 06:51:51;;;;;;;;;9.67;9.67;;;;;20.28;74.16;100947.44;6183004;23;59723;-84
2023/09/02 06:54:16;;;;;;;;;11.00;9.33;;;;;20.29;74.31;100968.03;6177850;23;46998;-80
2023/09/02 06:56:42;;;;;;;;;9.00;9.00;;;;;20.30;74.29;100974.31;6175096;23;53141;-79
2023/09/02 06:59:07;;;;;;;;;8.67;8.67;;;;;20.24;74.58;100959.53;6176405;22;45553;-80
2023/09/02 07:01:32;;;;;;;;;9.67;9.67;;;;;20.35;74.37;100966.66;6173853;23;65029;-80
2023/09/02 07:03:58;;;;;;;;;12.00;12.00;;;;;20.48;73.84;100951.06;6177424;22;45265;-84
2023/09/02 07:06:23;;;;;;;;;7.50;7.50;;;;;20.68;73.09;100967.28;6181349;23;45342;-83
2023/09/02 07:08:49;;;;;;;;;6.33;6.00;;;;;20.70;72.66;100958.03;6182771;23;45122;-78
2023/09/02 07:11:15;;;;;;;;;8.00;6.67;;;;;20.85;72.45;100961.16;6182378;22;45179;-84
2023/09/02 07:13:45;;;;;;;;;7.33;5.67;;;;;21.00;71.63;100973.25;6182341;22;45252;-83
2023/09/02 07:16:11;;;;;;;;;8.00;8.00;;;;;21.06;71.22;100972.66;6180531;23;45414;-81
2023/09/02 07:18:37;;;;;;;;;6.00;6.00;;;;;21.20;70.76;100979.47;6182835;23;45338;-84
2023/09/02 07:21:04;;;;;;;;;8.25;6.50;;;;;21.26;70.68;100988.91;6179973;23;45532;-81
2023/09/02 07:23:31;;;;;;;;;7.00;5.33;;;;;21.30;70.08;100979.50;6181917;22;45339;-82
2023/09/02 07:25:59;;;;;;;;;9.33;8.00;;;;;21.36;69.89;100990.59;6182399;22;45380;-79
2023/09/02 07:28:25;;;;;;;;;6.00;6.00;;;;;21.43;70.02;100996.25;6182498;22;45434;-80
2023/09/02 07:30:50;;;;;;;;;6.33;6.33;;;;;21.46;69.16;100990.53;6182181;23;45418;-80
2023/09/02 07:33:15;;;;;;;;;7.33;6.00;;;;;21.42;69.27;100984.59;6181222;23;64690;-82
2023/09/02 07:35:40;;;;;;;;;5.00;4.67;;;;;21.58;68.84;100989.38;6182069;23;56400;-78
2023/09/02 07:38:06;;;;;;;;;4.00;2.00;;;;;21.56;68.48;100987.81;6181835;23;46089;-80
2023/09/02 07:40:32;;;;;;;;;6.25;6.25;;;;;21.66;68.27;100986.78;6182075;22;45379;-78
2023/09/02 07:43:02;;;;;;;;;5.67;4.67;;;;;21.59;68.56;100984.81;6180246;23;48776;-81
2023/09/02 07:45:28;;;;;;;;;7.00;5.33;;;;;21.83;67.66;101008.66;6182362;22;45698;-80
2023/09/02 07:47:54;;;;;;;;;4.67;4.67;;;;;21.83;67.60;101014.94;6182793;22;45410;-79
2023/09/02 07:50:19;;;;;;;;;5.00;5.00;;;;;22.11;67.09;101045.63;6182496;23;45710;-82
2023/09/02 07:52:44;;;;;;;;;6.00;6.00;;;;;22.18;66.82;101060.31;6181941;23;45809;-78
2023/09/02 07:55:10;;;;;;;;;5.00;5.00;;;;;22.25;66.49;101064.09;6181645;23;49781;-83
2023/09/02 07:57:35;;;;;;;;;5.75;5.00;;;;;22.11;66.33;101052.91;6182068;23;45329;-82
2023/09/02 08:00:00;;;;;;;;;6.50;6.50;;;;;22.07;66.91;101055.06;6182603;22;45464;-86
2023/09/02 08:02:26;;;;;;;;;6.67;6.33;;;;;21.94;67.25;101039.13;6180790;23;47785;-83
2023/09/02 08:04:51;;;;;;;;;5.75;5.75;;;;;21.86;67.50;101019.19;6183242;23;45268;-78
2023/09/02 08:07:17;;;;;;;;;6.75;6.75;;;;;21.89;67.61;101046.00;6181355;23;45287;-78
2023/09/02 08:09:42;;;;;;;;;10.00;6.67;;;;;21.91;67.44;101050.25;6182402;22;45359;-78
2023/09/02 08:12:08;;;;;;;;;6.00;6.00;;;;;22.06;67.14;101059.63;6181163;23;48321;-78
2023/09/02 08:14:34;;;;;;;;;8.00;8.00;;;;;22.15;66.80;101057.91;6181111;22;45262;-78
2023/09/02 08:16:59;;;;;;;;;6.75;6.75;;;;;22.22;66.39;101068.97;6181778;22;45775;-77
2023/09/02 08:19:24;;;;;;;;;6.75;6.00;;;;;22.02;66.87;101036.53;6182388;23;45519;-78
2023/09/02 08:21:50;;;;;;;;;8.67;8.00;;;;;22.21;66.53;101076.25;6181261;23;45833;-79
2023/09/02 08:24:15;;;;;;;;;8.00;8.00;;;;;22.22;66.92;101074.38;6181138;23;52050;-77
2023/09/02 08:26:41;;;;;;;;;9.00;9.00;;;;;22.33;66.95;101077.75;6181775;23;45687;-77
2023/09/02 08:29:07;;;;;;;;;9.00;9.00;;;;;22.32;67.00;101067.94;6181767;23;45209;-87
2023/09/02 08:31:32;;;;;;;;;10.00;10.00;;;;;22.21;66.76;101023.91;6182998;22;46023;-83
2023/09/02 08:33:58;;;;;;;;;9.00;9.00;;;;;22.28;67.06;101036.72;6183006;23;45191;-80
2023/09/02 08:36:23;;;;;;;;;11.33;10.00;;;;;22.41;66.76;101051.78;6182189;23;45343;-80
2023/09/02 08:38:51;;;;;;;;;13.67;13.67;;;;;22.51;66.77;101047.13;6182361;23;45305;-79
2023/09/02 08:41:35;;;;;;;;;13.25;9.50;;;;;22.48;65.95;101028.47;6181099;23;46695;-83
2023/09/02 08:44:04;;;;;;;;;10.75;8.75;;;;;22.60;66.24;101032.66;6182586;23;45715;-79
2023/09/02 08:46:31;;;;;;;;;11.00;11.00;;;;;22.58;65.84;101010.28;6181469;22;45173;-79
2023/09/02 08:48:58;;;;;;;;;10.00;8.25;;;;;22.69;65.89;101006.50;6182524;22;45457;-79
2023/09/02 08:51:24;;;;;;;;;12.00;9.50;;;;;22.70;66.25;101011.78;6179950;23;46711;-78
2023/09/02 08:53:53;;;;;;;;;10.00;7.75;;;;;22.78;66.08;101011.84;6181913;23;45366;-80
2023/09/02 08:56:19;;;;;;;;;10.50;9.50;;;;;22.75;65.50;101009.44;6181760;22;45315;-81
2023/09/02 08:58:45;;;;;;;;;6.00;6.00;;;;;22.77;65.01;101020.97;6183182;23;45483;-84
2023/09/02 09:01:16;;;;;;;;;7.25;6.00;;;;;22.75;65.41;101011.31;6182358;22;45513;-79
2023/09/02 09:03:47;;;;;;;;;10.25;7.00;;;;;22.94;65.63;101017.47;6184232;22;45700;-84
2023/09/02 09:06:13;;;;;;;;;6.00;6.00;;;;;23.03;65.16;101014.81;6183743;22;45289;-82
2023/09/02 09:08:39;;;;;;;;;8.75;7.75;;;;;23.12;64.72;101009.31;6180550;23;45162;-82
2023/09/02 09:11:06;;;;;;;;;9.00;9.00;;;;;23.15;64.58;101006.25;6182189;23;46907;-82
2023/09/02 09:13:34;;;;;;;;;9.00;7.25;;;;;23.16;64.10;100998.97;6205640;22;45321;-82
2023/09/02 09:16:01;;;;;;;;;7.00;7.00;;;;;23.26;64.30;100999.75;6183062;22;45240;-80
2023/09/02 09:18:27;;;;;;;;;5.75;5.75;;;;;23.14;64.36;100979.28;6181830;23;45289;-81
2023/09/02 09:20:53;;;;;;;;;9.25;9.25;;;;;23.24;63.78;100986.34;6182920;23;53412;-79
2023/09/02 09:23:18;;;;;;;;;7.00;7.00;;;;;23.38;63.61;101006.63;6182999;23;45329;-82
2023/09/02 09:25:49;;;;;;;;;8.75;7.00;;;;;23.35;63.31;100992.53;6183930;23;45377;-83
2023/09/02 09:28:15;;;;;;;;;6.75;5.50;;;;;23.38;63.38;100998.47;6182885;23;45301;-83
2023/09/02 09:30:40;;;;;;;;;6.50;6.50;;;;;23.46;62.24;101012.13;6179957;23;47537;-79
2023/09/02 09:33:06;;;;;;;;;6.75;6.00;;;;;23.44;62.32;101000.56;6179589;23;45353;-81
2023/09/02 09:35:32;;;;;;;;;7.00;6.75;;;;;23.54;61.54;101017.56;6178928;23;45332;-80
2023/09/02 09:37:58;;;;;;;;;5.75;5.75;;;;;23.65;61.30;101023.78;6181654;23;45232;-79
2023/09/02 09:40:38;;;;;;;;;4.00;3.00;;;;;23.64;60.56;101009.38;6180835;23;45339;-80
2023/09/02 09:43:15;;;;;;;;;4.00;3.75;;;;;23.74;60.66;101020.97;6181576;22;45292;-79
2023/09/02 09:45:51;;;;;;;;;6.50;5.75;;;;;23.91;61.18;101032.78;6181024;23;45249;-79
2023/09/02 09:48:17;;;;;;;;;2.25;2.25;;;;;23.99;59.89;101048.28;6182187;22;45189;-81
2023/09/02 09:50:42;;;;;;;;;4.25;4.25;;;;;24.09;60.25;101054.44;6182895;23;45236;-82
2023/09/02 09:53:09;;;;;;;;;3.50;3.50;;;;;24.27;58.63;101070.66;6179700;23;45625;-82
2023/09/02 09:55:36;;;;;;;;;6.00;4.50;;;;;24.14;58.11;101038.50;6183027;22;45376;-79
2023/09/02 09:58:02;;;;;;;;;2.50;2.50;;;;;24.27;58.66;101059.78;6183522;22;45273;-81
2023/09/02 10:00:29;;;;;;;;;5.75;3.75;;;;;24.10;58.44;101035.25;6182464;23;45359;-80
2023/09/02 10:02:56;;;;;;;;;3.80;2.00;;;;;24.15;58.11;101033.91;6181883;22;45386;-79
2023/09/02 10:05:28;;;;;;;;;4.20;4.20;;;;;24.35;58.58;101067.97;6183172;22;45308;-82
2023/09/02 10:08:03;;;;;;;;;5.50;4.50;;;;;24.46;58.52;101059.53;6183283;22;45265;-79
2023/09/02 10:10:33;;;;;;;;;3.50;3.50;;;;;24.54;57.96;101067.72;6182440;23;47608;-80
2023/09/02 10:12:59;;;;;;;;;4.80;4.80;;;;;24.61;57.23;101057.91;6182629;22;45276;-80
2023/09/02 10:15:26;;;;;;;;;5.00;3.00;;;;;24.61;56.92;101052.47;6182454;23;45475;-81
2023/09/02 10:17:58;;;;;;;;;5.25;4.00;;;;;24.60;56.76;101045.31;6182981;22;45255;-82
2023/09/02 10:20:35;;;;;;;;;6.25;6.25;;;;;24.65;56.99;101042.94;6182641;22;45980;-80
2023/09/02 10:23:08;;;;;;;;;4.25;4.25;;;;;24.76;57.82;101049.09;6183007;22;45356;-80
2023/09/02 10:25:51;;;;;;;;;3.80;3.80;;;;;24.94;57.25;101060.69;6182638;23;45273;-81
2023/09/02 10:28:23;;;;;;;;;11.00;8.00;;;;;25.13;56.97;101057.69;6183568;22;45297;-81
2023/09/02 10:30:51;;;;;;;;;3.50;3.50;;;;;25.31;56.45;101045.78;6182966;22;46496;-80
2023/09/02 10:33:25;;;;;;;;;8.60;7.20;;;;;25.54;56.48;101053.09;6182602;22;45300;-81
2023/09/02 10:35:57;;;;;;;;;4.75;4.75;;;;;25.68;54.90;101053.41;6180779;23;45305;-80
2023/09/02 10:38:24;;;;;;;;;3.00;2.60;;;;;25.83;54.66;101055.28;6182913;23;45300;-81
2023/09/02 10:41:01;;;;;;;;;2.20;2.20;;;;;26.02;54.67;101037.66;6181762;23;45229;-80
2023/09/02 10:43:27;;;;;;;;;5.00;5.00;;;;;26.29;53.23;101055.44;6182666;22;45160;-81
2023/09/02 10:45:53;;;;;;;;;4.25;4.00;;;;;26.33;52.49;101047.78;6182460;22;45285;-80
2023/09/02 10:48:19;;;;;;;;;2.60;2.60;;;;;26.45;53.01;101054.56;6181532;22;45357;-79
2023/09/02 10:50:45;;;;;;;;;4.00;4.00;;;;;26.45;52.45;101039.06;6182219;22;45342;-81
2023/09/02 10:53:10;;;;;;;;;5.00;5.00;;;;;26.58;51.65;101037.63;6181848;23;45188;-80
2023/09/02 10:56:02;;;;;;;;;2.00;2.00;;;;;26.69;52.08;101046.25;6182474;23;45309;-79
2023/09/02 10:58:45;;;;;;;;;4.20;3.20;;;;;26.91;51.77;101044.56;6182680;23;45368;-81
2023/09/02 11:01:11;;;;;;;;;2.40;2.00;;;;;27.17;49.90;101059.75;6182105;22;45349;-81
2023/09/02 11:03:49;;;;;;;;;1.75;1.75;;;;;27.44;50.69;101058.34;6182816;23;45187;-84
2023/09/02 11:06:15;;;;;;;;;3.00;3.00;;;;;27.67;50.29;101047.41;6183168;22;45733;-81
2023/09/02 11:08:45;;;;;;;;;3.75;3.75;;;;;28.04;48.17;101057.41;6183013;22;45351;-82
2023/09/02 11:11:11;;;;;;;;;1.80;1.80;;;;;28.23;46.72;101029.47;6181980;22;45924;-81
2023/09/02 11:14:08;;;;;;;;;3.00;1.80;;;;;28.70;47.06;101053.66;6182309;22;45241;-82
2023/09/02 11:16:40;;;;;;;;;2.00;2.00;;;;;29.06;46.33;101047.34;6181777;23;45315;-86
2023/09/02 11:19:09;;;;;;;;;3.80;3.80;;;;;29.31;44.70;101040.41;6182175;23;45199;-85
2023/09/02 11:21:41;;;;;;;;;2.20;2.20;;;;;29.78;43.22;101052.59;6185140;22;45446;-86
2023/09/02 11:24:17;;;;;;;;;2.80;2.00;;;;;30.14;43.07;101057.06;6181361;22;45810;-81